sensor_id;sensor_type;location;lat;lon;timestamp;P1;durP1;ratioP1;P2;durP2;ratioP2
18267;SDS011;9260;49.998;19.880;2022-09-09T00:08:27;228.70;;;103.23;;
18267;SDS011;9260;49.998;19.880;2022-09-09T00:18:46;231.40;;;104.70;;
18267;SDS011;9260;49.998;19.880;2022-09-09T00:29:02;235.47;;;103.13;;
18267;SDS011;9260;49.998;19.880;2022-09-09T00:39:23;229.03;;;102.67;;
18267;SDS011;9260;49.998;19.880;2022-09-09T00:49:39;228.47;;;101.67;;
18267;SDS011;9260;49.998;19.880;2022-09-09T01:00:21;234.80;;;101.50;;
18267;SDS011;9260;49.998;19.880;2022-09-09T01:10:30;229.77;;;102.60;;
18267;SDS011;9260;49.998;19.880;2022-09-09T01:20:49;225.07;;;97.07;;
18267;SDS011;9260;49.998;19.880;2022-09-09T01:31:07;233.53;;;102.83;;
18267;SDS011;9260;49.998;19.880;2022-09-09T01:41:19;232.07;;;98.90;;
18267;SDS011;9260;49.998;19.880;2022-09-09T01:51:33;232.13;;;102.13;;
18267;SDS011;9260;49.998;19.880;2022-09-09T02:01:47;232.50;;;101.43;;
18267;SDS011;9260;49.998;19.880;2022-09-09T02:12:04;238.03;;;103.47;;
18267;SDS011;9260;49.998;19.880;2022-09-09T02:22:21;237.00;;;102.93;;
18267;SDS011;9260;49.998;19.880;2022-09-09T02:32:28;231.10;;;100.40;;
18267;SDS011;9260;49.998;19.880;2022-09-09T02:42:38;237.33;;;99.27;;
18267;SDS011;9260;49.998;19.880;2022-09-09T02:52:47;234.10;;;98.13;;
18267;SDS011;9260;49.998;19.880;2022-09-09T03:03:06;231.87;;;101.07;;
18267;SDS011;9260;49.998;19.880;2022-09-09T03:13:13;232.77;;;99.23;;
18267;SDS011;9260;49.998;19.880;2022-09-09T03:23:18;225.77;;;98.63;;
18267;SDS011;9260;49.998;19.880;2022-09-09T03:33:24;226.77;;;99.33;;
18267;SDS011;9260;49.998;19.880;2022-09-09T03:43:29;227.67;;;100.73;;
18267;SDS011;9260;49.998;19.880;2022-09-09T03:53:35;232.60;;;97.43;;
18267;SDS011;9260;49.998;19.880;2022-09-09T04:03:40;232.83;;;95.23;;
18267;SDS011;9260;49.998;19.880;2022-09-09T04:13:45;229.87;;;97.17;;
18267;SDS011;9260;49.998;19.880;2022-09-09T04:23:52;227.53;;;99.03;;
18267;SDS011;9260;49.998;19.880;2022-09-09T04:33:57;237.17;;;106.17;;
18267;SDS011;9260;49.998;19.880;2022-09-09T04:44:04;227.83;;;98.07;;
18267;SDS011;9260;49.998;19.880;2022-09-09T04:54:09;231.77;;;104.37;;
18267;SDS011;9260;49.998;19.880;2022-09-09T05:04:15;229.10;;;96.97;;
18267;SDS011;9260;49.998;19.880;2022-09-09T05:14:22;224.87;;;95.23;;
18267;SDS011;9260;49.998;19.880;2022-09-09T05:24:26;229.77;;;104.07;;
18267;SDS011;9260;49.998;19.880;2022-09-09T05:34:34;234.20;;;101.80;;
18267;SDS011;9260;49.998;19.880;2022-09-09T05:44:39;225.80;;;97.70;;
18267;SDS011;9260;49.998;19.880;2022-09-09T05:54:47;225.57;;;101.17;;
18267;SDS011;9260;49.998;19.880;2022-09-09T06:04:52;224.20;;;102.47;;
18267;SDS011;9260;49.998;19.880;2022-09-09T06:15:04;222.57;;;96.87;;
18267;SDS011;9260;49.998;19.880;2022-09-09T06:25:10;233.27;;;111.73;;
18267;SDS011;9260;49.998;19.880;2022-09-09T06:35:16;238.73;;;117.77;;
18267;SDS011;9260;49.998;19.880;2022-09-09T06:45:19;242.77;;;119.77;;
18267;SDS011;9260;49.998;19.880;2022-09-09T06:55:30;239.07;;;121.20;;
18267;SDS011;9260;49.998;19.880;2022-09-09T07:05:34;231.02;;;115.00;;
18267;SDS011;9260;49.998;19.880;2022-09-09T07:15:39;236.95;;;120.85;;
18267;SDS011;9260;49.998;19.880;2022-09-09T07:25:44;236.70;;;122.88;;
18267;SDS011;9260;49.998;19.880;2022-09-09T07:35:52;241.93;;;136.88;;
18267;SDS011;9260;49.998;19.880;2022-09-09T07:45:57;247.27;;;140.38;;
18267;SDS011;9260;49.998;19.880;2022-09-09T07:56:06;234.00;;;128.98;;
18267;SDS011;9260;49.998;19.880;2022-09-09T08:06:12;242.73;;;130.13;;
18267;SDS011;9260;49.998;19.880;2022-09-09T08:16:19;258.75;;;141.88;;
18267;SDS011;9260;49.998;19.880;2022-09-09T08:26:25;230.80;;;137.88;;
18267;SDS011;9260;49.998;19.880;2022-09-09T08:36:33;227.98;;;142.77;;
18267;SDS011;9260;49.998;19.880;2022-09-09T08:46:44;230.93;;;142.02;;
18267;SDS011;9260;49.998;19.880;2022-09-09T08:56:58;234.52;;;145.85;;
18267;SDS011;9260;49.998;19.880;2022-09-09T09:07:04;233.82;;;144.23;;
18267;SDS011;9260;49.998;19.880;2022-09-09T09:17:21;232.27;;;139.80;;
18267;SDS011;9260;49.998;19.880;2022-09-09T09:27:31;233.05;;;129.88;;
18267;SDS011;9260;49.998;19.880;2022-09-09T09:37:43;239.18;;;135.32;;
18267;SDS011;9260;49.998;19.880;2022-09-09T09:48:09;224.48;;;143.85;;
18267;SDS011;9260;49.998;19.880;2022-09-09T09:58:17;213.75;;;144.18;;
18267;SDS011;9260;49.998;19.880;2022-09-09T10:08:23;211.15;;;146.63;;
18267;SDS011;9260;49.998;19.880;2022-09-09T10:18:35;207.75;;;151.02;;
18267;SDS011;9260;49.998;19.880;2022-09-09T10:28:53;200.38;;;156.32;;
18267;SDS011;9260;49.998;19.880;2022-09-09T10:39:22;199.13;;;155.60;;
18267;SDS011;9260;49.998;19.880;2022-09-09T10:49:48;200.85;;;165.65;;
18267;SDS011;9260;49.998;19.880;2022-09-09T11:00:18;224.32;;;181.15;;
18267;SDS011;9260;49.998;19.880;2022-09-09T11:10:24;223.00;;;195.80;;
18267;SDS011;9260;49.998;19.880;2022-09-09T11:20:38;228.23;;;201.43;;
18267;SDS011;9260;49.998;19.880;2022-09-09T11:30:45;229.40;;;198.70;;
18267;SDS011;9260;49.998;19.880;2022-09-09T11:41:05;232.23;;;205.48;;
18267;SDS011;9260;49.998;19.880;2022-09-09T11:51:12;245.75;;;219.43;;
18267;SDS011;9260;49.998;19.880;2022-09-09T12:01:33;247.02;;;221.20;;
18267;SDS011;9260;49.998;19.880;2022-09-09T12:11:39;264.33;;;237.38;;
18267;SDS011;9260;49.998;19.880;2022-09-09T12:21:46;216.20;;;192.70;;
18267;SDS011;9260;49.998;19.880;2022-09-09T12:31:58;211.07;;;186.38;;
18267;SDS011;9260;49.998;19.880;2022-09-09T12:42:15;212.40;;;179.07;;
18267;SDS011;9260;49.998;19.880;2022-09-09T12:52:22;223.73;;;180.85;;
18267;SDS011;9260;49.998;19.880;2022-09-09T13:02:33;219.65;;;163.60;;
18267;SDS011;9260;49.998;19.880;2022-09-09T13:12:37;234.18;;;164.95;;
18267;SDS011;9260;49.998;19.880;2022-09-09T13:22:42;247.63;;;164.02;;
18267;SDS011;9260;49.998;19.880;2022-09-09T13:32:45;237.10;;;147.98;;
18267;SDS011;9260;49.998;19.880;2022-09-09T13:42:52;238.27;;;145.25;;
18267;SDS011;9260;49.998;19.880;2022-09-09T13:52:59;238.02;;;144.82;;
18267;SDS011;9260;49.998;19.880;2022-09-09T14:03:04;235.27;;;140.80;;
18267;SDS011;9260;49.998;19.880;2022-09-09T14:13:09;237.60;;;139.07;;
18267;SDS011;9260;49.998;19.880;2022-09-09T14:23:15;239.00;;;137.43;;
18267;SDS011;9260;49.998;19.880;2022-09-09T14:33:18;235.45;;;133.70;;
18267;SDS011;9260;49.998;19.880;2022-09-09T14:43:24;241.43;;;128.75;;
18267;SDS011;9260;49.998;19.880;2022-09-09T14:53:29;241.90;;;128.55;;
18267;SDS011;9260;49.998;19.880;2022-09-09T15:03:34;250.07;;;129.02;;
18267;SDS011;9260;49.998;19.880;2022-09-09T15:13:39;243.63;;;127.45;;
18267;SDS011;9260;49.998;19.880;2022-09-09T15:23:45;240.93;;;127.28;;
18267;SDS011;9260;49.998;19.880;2022-09-09T15:33:50;242.90;;;119.70;;
18267;SDS011;9260;49.998;19.880;2022-09-09T15:43:56;246.48;;;119.18;;
18267;SDS011;9260;49.998;19.880;2022-09-09T15:54:00;248.55;;;119.95;;
18267;SDS011;9260;49.998;19.880;2022-09-09T16:04:06;243.38;;;116.35;;
18267;SDS011;9260;49.998;19.880;2022-09-09T16:14:09;237.93;;;112.78;;
18267;SDS011;9260;49.998;19.880;2022-09-09T16:24:15;242.57;;;116.45;;
18267;SDS011;9260;49.998;19.880;2022-09-09T16:34:21;242.68;;;110.43;;
18267;SDS011;9260;49.998;19.880;2022-09-09T16:44:26;239.93;;;109.73;;
18267;SDS011;9260;49.998;19.880;2022-09-09T16:54:30;236.57;;;106.43;;
18267;SDS011;9260;49.998;19.880;2022-09-09T17:04:35;235.00;;;105.83;;
18267;SDS011;9260;49.998;19.880;2022-09-09T17:14:40;245.13;;;113.90;;
18267;SDS011;9260;49.998;19.880;2022-09-09T17:24:46;238.90;;;100.37;;
18267;SDS011;9260;49.998;19.880;2022-09-09T17:34:49;250.33;;;117.20;;
18267;SDS011;9260;49.998;19.880;2022-09-09T17:44:56;237.63;;;101.70;;
18267;SDS011;9260;49.998;19.880;2022-09-09T17:54:59;241.83;;;101.30;;
18267;SDS011;9260;49.998;19.880;2022-09-09T18:05:05;250.73;;;103.03;;
18267;SDS011;9260;49.998;19.880;2022-09-09T18:15:09;242.83;;;101.33;;
18267;SDS011;9260;49.998;19.880;2022-09-09T18:25:30;242.53;;;101.80;;
18267;SDS011;9260;49.998;19.880;2022-09-09T18:35:35;247.80;;;102.93;;
18267;SDS011;9260;49.998;19.880;2022-09-09T18:45:41;244.43;;;101.57;;
18267;SDS011;9260;49.998;19.880;2022-09-09T18:55:45;248.30;;;104.67;;
18267;SDS011;9260;49.998;19.880;2022-09-09T19:05:50;258.20;;;109.57;;
18267;SDS011;9260;49.998;19.880;2022-09-09T19:15:54;256.43;;;108.07;;
18267;SDS011;9260;49.998;19.880;2022-09-09T19:26:02;255.23;;;104.00;;
18267;SDS011;9260;49.998;19.880;2022-09-09T19:36:06;248.27;;;104.03;;
18267;SDS011;9260;49.998;19.880;2022-09-09T19:46:13;250.47;;;103.77;;
18267;SDS011;9260;49.998;19.880;2022-09-09T19:56:19;244.80;;;97.50;;
18267;SDS011;9260;49.998;19.880;2022-09-09T20:06:27;250.37;;;101.13;;
18267;SDS011;9260;49.998;19.880;2022-09-09T20:16:33;259.73;;;102.77;;
18267;SDS011;9260;49.998;19.880;2022-09-09T20:26:39;243.97;;;96.63;;
18267;SDS011;9260;49.998;19.880;2022-09-09T20:36:42;249.67;;;101.27;;
18267;SDS011;9260;49.998;19.880;2022-09-09T20:46:48;252.03;;;99.33;;
18267;SDS011;9260;49.998;19.880;2022-09-09T20:56:56;255.37;;;103.00;;
18267;SDS011;9260;49.998;19.880;2022-09-09T21:07:02;262.00;;;105.80;;
18267;SDS011;9260;49.998;19.880;2022-09-09T21:17:08;258.37;;;108.37;;
18267;SDS011;9260;49.998;19.880;2022-09-09T21:27:13;257.80;;;106.87;;
18267;SDS011;9260;49.998;19.880;2022-09-09T21:37:17;259.67;;;105.93;;
18267;SDS011;9260;49.998;19.880;2022-09-09T21:47:22;254.87;;;104.63;;
18267;SDS011;9260;49.998;19.880;2022-09-09T21:57:26;251.23;;;104.13;;
18267;SDS011;9260;49.998;19.880;2022-09-09T22:07:31;250.20;;;103.30;;
18267;SDS011;9260;49.998;19.880;2022-09-09T22:17:35;259.50;;;106.87;;
18267;SDS011;9260;49.998;19.880;2022-09-09T22:27:40;261.60;;;106.23;;
18267;SDS011;9260;49.998;19.880;2022-09-09T22:37:43;256.93;;;105.60;;
18267;SDS011;9260;49.998;19.880;2022-09-09T22:47:49;258.43;;;109.13;;
18267;SDS011;9260;49.998;19.880;2022-09-09T22:57:52;262.47;;;109.83;;
18267;SDS011;9260;49.998;19.880;2022-09-09T23:07:59;269.20;;;115.33;;
18267;SDS011;9260;49.998;19.880;2022-09-09T23:18:02;267.50;;;112.20;;
18267;SDS011;9260;49.998;19.880;2022-09-09T23:28:08;269.50;;;111.93;;
18267;SDS011;9260;49.998;19.880;2022-09-09T23:38:11;266.97;;;110.87;;
18267;SDS011;9260;49.998;19.880;2022-09-09T23:48:17;272.47;;;112.47;;
18267;SDS011;9260;49.998;19.880;2022-09-09T23:58:21;272.60;;;113.50;;
